This is the latest recevied weather packets stored in our database for station/object KD5VOO. If no packets are shown the sender has not sent any weather packets the latest 1 day(s).
| Time | Temp. | Humidity | Pressure | Rain* | Wind** | Luminosity | Snow |
|---|---|---|---|---|---|---|---|
| 1778020920 | 27.78° C | 56% | 1007.5 hPa | 0 mm | 0.89 m/s, 177° | 84 W/m² | - |
| 1778020618 | 27.78° C | 55% | 1007.5 hPa | 0 mm | 1.79 m/s, 209° | 74 W/m² | - |
| 1778020313 | 27.78° C | 55% | 1007.5 hPa | 0 mm | 3.58 m/s, 200° | 150 W/m² | - |
| 1778020009 | 27.78° C | 55% | 1007.5 hPa | 0 mm | 4.02 m/s, 208° | 134 W/m² | - |
| 1778019706 | 27.22° C | 55% | 1007.5 hPa | 0 mm | 1.34 m/s, 234° | 90 W/m² | - |
| 1778019403 | 27.22° C | 56% | 1007.5 hPa | 0 mm | 0.89 m/s, 176° | 80 W/m² | - |
| 1778019099 | 27.22° C | 56% | 1007.8 hPa | 0 mm | 0.89 m/s, 242° | 86 W/m² | - |
| 1778018797 | 27.78° C | 56% | 1007.8 hPa | 0 mm | 2.24 m/s, 211° | 90 W/m² | - |
| 1778018495 | 27.78° C | 56% | 1007.8 hPa | 0 mm | 1.79 m/s, 293° | 51 W/m² | - |
| 1778018192 | 27.78° C | 56% | 1007.8 hPa | 0 mm | 2.24 m/s, 239° | 44 W/m² | - |
| 1778017890 | 27.78° C | 55% | 1007.8 hPa | 0 mm | 2.24 m/s, 195° | 50 W/m² | - |
| 1778017588 | 27.78° C | 55% | 1007.8 hPa | 0 mm | 1.79 m/s, 232° | 72 W/m² | - |
| 1778017285 | 28.33° C | 54% | 1007.8 hPa | 0 mm | 1.34 m/s, 175° | 52 W/m² | - |
| 1778016982 | 28.33° C | 53% | 1007.8 hPa | 0 mm | 2.24 m/s, 210° | 67 W/m² | - |
| 1778016679 | 28.33° C | 53% | 1007.8 hPa | 0 mm | 4.02 m/s, 204° | 94 W/m² | - |
| 1778016375 | 28.89° C | 53% | 1007.8 hPa | 0 mm | 2.68 m/s, 243° | 76 W/m² | - |
| 1778016073 | 28.89° C | 53% | 1007.8 hPa | 0 mm | 2.68 m/s, 205° | 110 W/m² | - |
| 1778015769 | 28.89° C | 53% | 1007.8 hPa | 0 mm | 2.68 m/s, 197° | 88 W/m² | - |
| 1778015467 | 28.33° C | 52% | 1007.8 hPa | 0 mm | 2.24 m/s, 180° | 101 W/m² | - |
| 1778015163 | 28.33° C | 51% | 1008.2 hPa | 0 mm | 2.24 m/s, 189° | 139 W/m² | - |
| 1778014860 | 28.33° C | 52% | 1008.2 hPa | 0 mm | 0 m/s | 152 W/m² | - |
| 1778014558 | 28.33° C | 53% | 1008.2 hPa | 0 mm | 2.68 m/s, 191° | 188 W/m² | - |
| 1778014255 | 27.78° C | 53% | 1008.2 hPa | 0 mm | 5.36 m/s, 187° | 211 W/m² | - |
| 1778013952 | 27.78° C | 54% | 1008.2 hPa | 0 mm | 0 m/s | 144 W/m² | - |
| 1778013649 | 27.78° C | 53% | 1008.2 hPa | 0 mm | 1.34 m/s, 213° | 87 W/m² | - |
* Rain latest hour (hover to see other rain measurements)
** Current wind speed in m/s (hover to see current wind gust speed)